createdAt,value
2023-02-22T00:02:16.760Z,33.50
2023-02-22T00:04:44.271Z,25.95
2023-02-22T00:09:39.101Z,27.75
2023-02-22T00:14:33.770Z,28.63
2023-02-22T00:19:31.098Z,27.38
2023-02-22T00:21:58.798Z,25.70
2023-02-22T00:24:26.303Z,27.63
2023-02-22T00:29:26.002Z,27.20
2023-02-22T00:31:54.330Z,28.63
2023-02-22T00:34:24.358Z,28.48
2023-02-22T00:36:51.847Z,25.73
2023-02-22T00:39:19.613Z,26.65
2023-02-22T00:41:47.203Z,26.30
2023-02-22T00:44:14.956Z,34.88
2023-02-22T00:46:42.463Z,31.50
2023-02-22T00:49:09.974Z,35.38
2023-02-22T00:51:37.587Z,34.00
2023-02-22T00:54:05.548Z,41.45
2023-02-22T00:56:37.428Z,37.35
2023-02-22T00:59:04.914Z,41.60
2023-02-22T01:03:59.773Z,38.92
2023-02-22T01:06:27.294Z,40.05
2023-02-22T01:08:55.174Z,37.70
2023-02-22T01:11:24.791Z,39.38
2023-02-22T01:13:54.244Z,42.50
2023-02-22T01:16:22.360Z,39.30
2023-02-22T01:18:50.233Z,40.60
2023-02-22T01:21:18.082Z,41.22
2023-02-22T01:23:46.325Z,37.85
2023-02-22T01:26:13.926Z,38.15
2023-02-22T01:28:41.495Z,40.50
2023-02-22T01:33:36.502Z,38.58
2023-02-22T01:38:31.288Z,43.22
2023-02-22T01:43:30.958Z,39.05
2023-02-22T01:46:04.199Z,44.83
2023-02-22T01:48:45.855Z,43.75
2023-02-22T01:51:37.708Z,39.25
2023-02-22T01:54:11.448Z,39.05
2023-02-22T01:56:46.692Z,38.60
2023-02-22T01:59:15.022Z,40.83
2023-02-22T02:01:45.725Z,42.78
2023-02-22T02:04:25.712Z,41.92
2023-02-22T02:06:59.742Z,39.65
2023-02-22T02:09:52.184Z,43.03
2023-02-22T02:12:23.429Z,38.08
2023-02-22T02:14:52.151Z,38.05
2023-02-22T02:17:23.837Z,39.90
2023-02-22T02:20:07.280Z,36.30
2023-02-22T02:22:43.959Z,34.88
2023-02-22T02:25:32.366Z,40.80
2023-02-22T02:28:15.390Z,33.80
2023-02-22T02:31:10.182Z,35.83
2023-02-22T02:33:37.587Z,32.70
2023-02-22T02:36:20.266Z,36.10
2023-02-22T02:38:59.437Z,33.95
2023-02-22T02:41:56.901Z,38.13
2023-02-22T02:44:55.906Z,33.53
2023-02-22T02:47:33.052Z,31.35
2023-02-22T02:52:32.970Z,36.63
2023-02-22T02:55:03.487Z,36.35
2023-02-22T02:57:30.935Z,37.15
2023-02-22T03:00:00.398Z,37.25
2023-02-22T03:03:05.618Z,37.05
2023-02-22T03:05:52.721Z,35.03
2023-02-22T03:08:50.581Z,36.17
2023-02-22T03:11:29.435Z,34.65
2023-02-22T03:14:20.089Z,35.83
2023-02-22T03:17:06.083Z,37.88
2023-02-22T03:19:45.721Z,39.00
2023-02-22T03:22:17.672Z,33.88
2023-02-22T03:25:02.276Z,32.53
2023-02-22T03:27:43.561Z,35.55
2023-02-22T03:30:19.893Z,36.40
2023-02-22T03:32:50.995Z,35.13
2023-02-22T03:35:25.945Z,31.65
2023-02-22T03:37:57.380Z,32.75
2023-02-22T03:40:45.462Z,32.72
2023-02-22T03:43:19.040Z,32.30
2023-02-22T03:45:50.621Z,32.20
2023-02-22T03:48:30.434Z,34.58
2023-02-22T03:51:02.910Z,32.55
2023-02-22T03:53:34.374Z,35.35
2023-02-22T03:56:05.988Z,31.20
2023-02-22T03:58:36.956Z,30.70
2023-02-22T04:01:05.058Z,31.85
2023-02-22T04:03:32.573Z,33.63
2023-02-22T04:06:00.161Z,32.40
2023-02-22T04:08:27.660Z,29.02
2023-02-22T04:13:27.484Z,29.08
2023-02-22T04:15:55.430Z,31.42
2023-02-22T04:18:23.114Z,29.52
2023-02-22T04:20:51.790Z,31.30
2023-02-22T04:23:42.000Z,28.30
2023-02-22T04:26:10.006Z,30.35
2023-02-22T04:28:37.486Z,28.83
2023-02-22T04:31:15.725Z,28.90
2023-02-22T04:33:44.052Z,29.83
2023-02-22T04:36:16.241Z,27.02
2023-02-22T04:38:45.388Z,29.08
2023-02-22T04:41:13.647Z,31.25
2023-02-22T04:43:42.439Z,32.05
2023-02-22T04:46:17.857Z,30.20
2023-02-22T04:48:45.901Z,29.10
2023-02-22T04:51:15.309Z,30.63
2023-02-22T04:53:54.110Z,30.35
2023-02-22T04:56:21.697Z,32.05
2023-02-22T04:58:49.956Z,29.85
2023-02-22T05:01:17.816Z,29.13
2023-02-22T05:03:47.213Z,29.10
2023-02-22T05:06:14.810Z,32.95
2023-02-22T05:08:42.831Z,30.30
2023-02-22T05:11:10.274Z,30.15
2023-02-22T05:16:05.568Z,34.42
2023-02-22T05:18:33.074Z,31.20
2023-02-22T05:21:00.610Z,31.92
2023-02-22T05:23:28.005Z,31.70
2023-02-22T05:28:22.726Z,31.85
2023-02-22T05:30:50.807Z,32.42
2023-02-22T05:33:18.404Z,32.33
2023-02-22T05:35:46.415Z,31.50
2023-02-22T05:38:15.326Z,34.08
2023-02-22T05:40:43.513Z,34.10
2023-02-22T05:43:11.021Z,34.00
2023-02-22T05:45:38.500Z,31.65
2023-02-22T05:50:34.124Z,32.58
2023-02-22T05:53:02.379Z,33.75
2023-02-22T05:55:29.851Z,34.40
2023-02-22T06:00:27.949Z,31.42
2023-02-22T06:03:04.364Z,32.55
2023-02-22T06:05:32.189Z,34.58
2023-02-22T06:08:02.227Z,35.33
2023-02-22T06:10:30.181Z,32.55
2023-02-22T06:12:59.462Z,32.42
2023-02-22T06:15:28.432Z,31.83
2023-02-22T06:17:57.929Z,33.13
2023-02-22T06:20:28.131Z,34.47
2023-02-22T06:22:57.752Z,32.00
2023-02-22T06:25:28.039Z,30.60
2023-02-22T06:27:55.553Z,32.53
2023-02-22T06:32:51.519Z,30.98
2023-02-22T06:35:19.324Z,33.50
2023-02-22T06:37:48.452Z,30.08
2023-02-22T06:40:16.098Z,31.90
2023-02-22T06:42:44.001Z,33.70
2023-02-22T06:45:11.539Z,33.83
2023-02-22T06:47:40.705Z,32.25
2023-02-22T06:50:18.890Z,34.42
2023-02-22T06:52:48.089Z,33.55
2023-02-22T06:55:24.517Z,30.30
2023-02-22T06:57:52.437Z,32.28
2023-02-22T07:00:22.366Z,31.70
2023-02-22T07:02:49.800Z,31.17
2023-02-22T07:07:47.285Z,27.58
2023-02-22T07:10:24.528Z,30.50
2023-02-22T07:12:52.652Z,30.15
2023-02-22T07:15:23.735Z,32.00
2023-02-22T07:17:52.430Z,31.98
2023-02-22T07:20:21.722Z,32.03
2023-02-22T07:22:49.630Z,35.05
2023-02-22T07:25:17.583Z,31.27
2023-02-22T07:27:45.891Z,29.83
2023-02-22T07:30:25.466Z,33.95
2023-02-22T07:32:55.282Z,31.42
2023-02-22T07:35:24.415Z,30.80
2023-02-22T07:37:54.060Z,33.28
2023-02-22T07:40:24.968Z,31.20
2023-02-22T07:42:53.336Z,35.17
2023-02-22T07:45:22.140Z,33.92
2023-02-22T07:47:49.612Z,32.97
2023-02-22T07:50:18.447Z,32.38
2023-02-22T07:52:51.384Z,35.53
2023-02-22T07:55:21.548Z,34.25
2023-02-22T07:57:51.561Z,34.40
2023-02-22T08:00:32.142Z,33.42
2023-02-22T08:03:01.244Z,32.55
2023-02-22T08:05:30.738Z,31.77
2023-02-22T08:07:58.627Z,32.47
2023-02-22T08:10:27.234Z,32.92
2023-02-22T08:12:56.073Z,30.23
2023-02-22T08:15:26.538Z,33.45
2023-02-22T08:17:55.526Z,31.70
2023-02-22T08:20:23.082Z,30.52
2023-02-22T08:22:51.500Z,32.95
2023-02-22T08:25:21.133Z,32.75
2023-02-22T08:27:49.130Z,29.08
2023-02-22T08:30:23.800Z,33.03
2023-02-22T08:32:51.814Z,31.75
2023-02-22T08:35:22.585Z,31.77
2023-02-22T08:37:55.002Z,27.45
2023-02-22T08:40:24.965Z,31.48
2023-02-22T08:42:52.633Z,32.35
2023-02-22T08:45:20.878Z,28.98
2023-02-22T08:47:48.524Z,31.08
2023-02-22T08:50:21.858Z,29.10
2023-02-22T08:52:59.448Z,32.25
2023-02-22T08:55:34.426Z,32.85
2023-02-22T08:58:03.476Z,30.20
2023-02-22T09:00:33.428Z,29.60
2023-02-22T09:03:02.965Z,27.75
2023-02-22T09:05:31.665Z,27.35
2023-02-22T09:08:00.402Z,29.58
2023-02-22T09:10:33.920Z,27.90
2023-02-22T09:13:02.576Z,27.63
2023-02-22T09:15:30.527Z,26.17
2023-02-22T09:17:58.926Z,25.83
2023-02-22T09:20:27.769Z,27.42
2023-02-22T09:22:55.642Z,30.10
2023-02-22T09:25:23.740Z,26.80
2023-02-22T09:27:52.639Z,27.10
2023-02-22T09:30:25.125Z,30.00
2023-02-22T09:32:56.270Z,28.02
2023-02-22T09:35:37.068Z,29.20
2023-02-22T09:38:06.582Z,27.83
2023-02-22T09:40:45.262Z,24.38
2023-02-22T09:43:40.752Z,27.67
2023-02-22T09:46:12.305Z,25.88
2023-02-22T09:49:19.594Z,28.25
2023-02-22T09:52:04.778Z,27.00
2023-02-22T09:54:38.999Z,29.50
2023-02-22T09:57:12.949Z,30.17
2023-02-22T09:59:46.938Z,25.05
2023-02-22T10:02:37.088Z,27.77
2023-02-22T10:05:20.240Z,26.20
2023-02-22T10:07:54.459Z,26.88
2023-02-22T10:10:25.007Z,26.77
2023-02-22T10:13:23.958Z,25.98
2023-02-22T10:16:05.288Z,25.50
2023-02-22T10:19:11.148Z,24.45
2023-02-22T10:22:06.947Z,23.38
2023-02-22T10:24:38.512Z,25.70
2023-02-22T10:27:34.337Z,24.50
2023-02-22T10:30:33.948Z,21.77
2023-02-22T10:33:20.447Z,24.38
2023-02-22T10:35:48.853Z,23.57
2023-02-22T10:38:20.817Z,22.08
2023-02-22T10:40:54.787Z,21.23
2023-02-22T10:43:23.589Z,19.52
2023-02-22T10:45:56.131Z,19.73
2023-02-22T10:48:26.515Z,18.05
2023-02-22T10:50:59.817Z,18.88
2023-02-22T10:53:28.654Z,18.65
2023-02-22T10:56:09.818Z,16.63
2023-02-22T10:59:02.493Z,18.65
2023-02-22T11:01:32.925Z,18.02
2023-02-22T11:04:07.142Z,17.33
2023-02-22T11:06:35.233Z,16.85
2023-02-22T11:09:13.419Z,18.42
2023-02-22T11:11:44.125Z,18.50
2023-02-22T11:14:13.691Z,19.25
2023-02-22T11:16:51.351Z,18.80
2023-02-22T11:19:26.039Z,17.55
2023-02-22T11:22:09.835Z,18.90
2023-02-22T11:24:58.183Z,18.58
2023-02-22T11:27:33.358Z,18.70
2023-02-22T11:30:18.252Z,20.05
2023-02-22T11:32:49.571Z,18.98
2023-02-22T11:35:38.849Z,23.30
2023-02-22T11:38:12.226Z,20.40
2023-02-22T11:40:40.237Z,18.83
2023-02-22T11:43:18.977Z,20.60
2023-02-22T11:46:06.428Z,20.05
2023-02-22T11:48:39.529Z,19.95
2023-02-22T11:51:14.502Z,17.85
2023-02-22T11:54:11.291Z,19.80
2023-02-22T11:56:48.329Z,19.10
2023-02-22T11:59:47.013Z,18.85
2023-02-22T12:02:37.471Z,20.17
2023-02-22T12:05:31.202Z,18.08
2023-02-22T12:08:28.200Z,17.13
2023-02-22T12:11:35.678Z,18.02
2023-02-22T12:14:24.357Z,10.55
2023-02-22T12:17:06.660Z,8.43
2023-02-22T12:19:49.403Z,7.65
2023-02-22T12:22:23.195Z,4.18
2023-02-22T12:25:09.843Z,3.53
2023-02-22T12:30:19.354Z,0.80
2023-02-22T12:32:52.795Z,1.38
2023-02-22T12:35:28.070Z,1.27
2023-02-22T12:38:08.298Z,2.15
2023-02-22T12:40:47.327Z,3.97
2023-02-22T12:43:37.052Z,3.60
2023-02-22T12:46:31.930Z,3.92
2023-02-22T12:49:23.416Z,5.60
2023-02-22T12:52:21.384Z,5.95
2023-02-22T12:54:59.498Z,2.63
2023-02-22T12:57:35.914Z,4.85
2023-02-22T13:00:23.248Z,9.30
2023-02-22T13:03:02.477Z,6.80
2023-02-22T13:05:37.005Z,8.80
2023-02-22T13:08:58.504Z,8.38
2023-02-22T13:11:34.166Z,3.85
2023-02-22T13:14:39.116Z,19.08
2023-02-22T13:17:43.137Z,8.85
2023-02-22T13:20:18.506Z,6.80
2023-02-22T13:23:03.552Z,4.65
2023-02-22T13:25:41.431Z,5.30
2023-02-22T13:28:26.496Z,6.53
2023-02-22T13:31:05.892Z,6.32
2023-02-22T13:33:45.273Z,6.68
2023-02-22T13:36:15.905Z,4.60
2023-02-22T13:39:39.203Z,5.93
2023-02-22T13:42:44.576Z,8.05
2023-02-22T13:45:29.394Z,5.30
2023-02-22T13:48:24.815Z,5.00
2023-02-22T13:51:06.764Z,4.43
2023-02-22T13:53:56.037Z,9.02
2023-02-22T13:56:25.962Z,6.97
2023-02-22T13:58:58.300Z,8.40
2023-02-22T14:01:47.964Z,6.80
2023-02-22T14:04:23.711Z,7.53
2023-02-22T14:06:51.473Z,9.02
2023-02-22T14:09:57.743Z,10.95
2023-02-22T14:12:31.619Z,7.05
2023-02-22T14:15:28.109Z,9.10
2023-02-22T14:18:02.050Z,10.32
2023-02-22T14:20:36.176Z,7.72
2023-02-22T14:23:34.183Z,8.75
2023-02-22T14:26:20.188Z,8.98
2023-02-22T14:29:00.794Z,8.97
2023-02-22T14:31:37.426Z,7.70
2023-02-22T14:34:16.054Z,12.13
2023-02-22T14:37:07.699Z,9.23
2023-02-22T14:39:45.183Z,8.43
2023-02-22T14:42:33.271Z,6.80
2023-02-22T14:45:17.491Z,10.27
2023-02-22T14:47:50.193Z,7.47
2023-02-22T14:50:45.302Z,9.32
2023-02-22T14:53:12.759Z,7.80
2023-02-22T14:58:18.952Z,4.82
2023-02-22T15:00:50.007Z,9.77
2023-02-22T15:03:37.403Z,6.38
2023-02-22T15:06:18.636Z,4.70
2023-02-22T15:08:49.876Z,7.35
2023-02-22T15:11:23.998Z,7.53
2023-02-22T15:13:54.176Z,6.32
2023-02-22T15:16:23.491Z,6.78
2023-02-22T15:18:55.700Z,9.52
2023-02-22T15:21:28.499Z,9.18
2023-02-22T15:24:00.090Z,9.50
2023-02-22T15:26:37.393Z,11.60
2023-02-22T15:29:25.667Z,7.13
2023-02-22T15:31:53.994Z,4.15
2023-02-22T15:34:28.206Z,6.20
2023-02-22T15:36:58.418Z,7.40
2023-02-22T15:39:34.655Z,7.90
2023-02-22T15:42:05.660Z,8.77
2023-02-22T15:44:53.983Z,3.78
2023-02-22T15:47:27.566Z,4.03
2023-02-22T15:50:23.998Z,5.82
2023-02-22T15:53:27.250Z,4.53
2023-02-22T15:56:01.000Z,5.40
2023-02-22T15:58:30.117Z,5.53
2023-02-22T16:01:03.956Z,5.57
2023-02-22T16:03:53.695Z,6.57
2023-02-22T16:06:40.516Z,5.20
2023-02-22T16:09:17.368Z,6.10
2023-02-22T16:11:47.129Z,6.85
2023-02-22T16:14:40.111Z,6.75
2023-02-22T16:17:35.429Z,4.72
2023-02-22T16:20:19.212Z,10.25
2023-02-22T16:22:51.662Z,7.25
2023-02-22T16:25:19.277Z,7.05
2023-02-22T16:27:47.931Z,7.63
2023-02-22T16:30:24.554Z,8.15
2023-02-22T16:32:55.681Z,4.18
2023-02-22T16:35:29.085Z,9.20
2023-02-22T16:38:02.382Z,5.90
2023-02-22T16:40:35.998Z,6.95
2023-02-22T16:43:08.018Z,5.25
2023-02-22T16:45:36.200Z,6.78
2023-02-22T16:48:19.341Z,8.98
2023-02-22T16:50:50.862Z,8.25
2023-02-22T16:53:21.527Z,4.35
2023-02-22T16:55:50.908Z,7.78
2023-02-22T16:58:19.413Z,4.88
2023-02-22T17:00:46.860Z,7.03
2023-02-22T17:03:16.859Z,6.20
2023-02-22T17:05:44.581Z,6.65
2023-02-22T17:08:12.174Z,8.00
2023-02-22T17:10:39.743Z,7.75
2023-02-22T17:13:21.858Z,6.03
2023-02-22T17:15:50.593Z,11.13
2023-02-22T17:18:23.007Z,7.97
2023-02-22T17:20:52.541Z,4.40
2023-02-22T17:23:20.772Z,7.95
2023-02-22T17:25:55.536Z,9.05
2023-02-22T17:28:24.801Z,4.97
2023-02-22T17:30:54.644Z,3.92
2023-02-22T17:33:27.405Z,7.22
2023-02-22T17:35:57.886Z,7.35
2023-02-22T17:38:29.119Z,4.25
2023-02-22T17:40:58.043Z,5.72
2023-02-22T17:43:27.962Z,7.40
2023-02-22T17:45:56.494Z,7.57
2023-02-22T17:48:24.680Z,8.38
2023-02-22T17:50:52.878Z,5.35
2023-02-22T17:53:25.076Z,7.80
2023-02-22T17:55:53.143Z,8.40
2023-02-22T17:58:22.316Z,8.85
2023-02-22T18:00:51.010Z,5.97
2023-02-22T18:03:25.919Z,10.80
2023-02-22T18:05:57.731Z,7.63
2023-02-22T18:08:27.607Z,5.72
2023-02-22T18:10:58.318Z,6.43
2023-02-22T18:13:27.863Z,9.10
2023-02-22T18:16:05.884Z,7.00
2023-02-22T18:18:34.044Z,8.25
2023-02-22T18:21:02.020Z,6.97
2023-02-22T18:23:31.611Z,8.63
2023-02-22T18:26:10.751Z,9.93
2023-02-22T18:28:39.779Z,7.30
2023-02-22T18:31:15.935Z,4.03
2023-02-22T18:33:45.416Z,10.80
2023-02-22T18:36:14.446Z,9.98
2023-02-22T18:38:43.769Z,8.50
2023-02-22T18:41:14.439Z,5.80
2023-02-22T18:43:42.955Z,10.40
2023-02-22T18:46:16.420Z,13.98
2023-02-22T18:48:45.026Z,13.48
2023-02-22T18:51:14.444Z,9.60
2023-02-22T18:53:47.722Z,8.65
2023-02-22T18:56:22.567Z,9.00
2023-02-22T18:58:54.732Z,8.05
2023-02-22T19:01:22.856Z,6.45
2023-02-22T19:03:51.943Z,6.35
2023-02-22T19:06:22.720Z,8.15
2023-02-22T19:08:51.094Z,9.60
2023-02-22T19:11:22.013Z,7.60
2023-02-22T19:13:52.429Z,10.23
2023-02-22T19:16:22.416Z,11.43
2023-02-22T19:18:52.678Z,7.75
2023-02-22T19:21:20.901Z,7.70
2023-02-22T19:23:49.499Z,9.73
2023-02-22T19:26:20.028Z,7.72
2023-02-22T19:28:48.221Z,9.23
2023-02-22T19:31:19.689Z,7.60
2023-02-22T19:33:51.424Z,5.22
2023-02-22T19:36:20.489Z,11.25
2023-02-22T19:38:48.036Z,9.25
2023-02-22T19:41:18.526Z,10.93
2023-02-22T19:43:51.745Z,9.85
2023-02-22T19:46:21.359Z,11.88
2023-02-22T19:48:49.930Z,9.48
2023-02-22T19:51:19.820Z,8.15
2023-02-22T19:53:47.620Z,8.57
2023-02-22T19:56:20.755Z,8.77
2023-02-22T19:58:50.238Z,7.60
2023-02-22T20:01:23.411Z,9.27
2023-02-22T20:03:56.478Z,9.82
2023-02-22T20:06:28.279Z,11.68
2023-02-22T20:08:56.660Z,8.30
2023-02-22T20:11:24.999Z,10.95
2023-02-22T20:13:52.557Z,8.00
2023-02-22T20:16:20.007Z,11.73
2023-02-22T20:18:48.596Z,11.00
2023-02-22T20:21:22.521Z,11.43
2023-02-22T20:23:50.827Z,8.52
2023-02-22T20:26:22.459Z,10.02
2023-02-22T20:28:50.873Z,9.75
2023-02-22T20:31:19.765Z,8.93
2023-02-22T20:33:49.458Z,14.77
2023-02-22T20:36:18.687Z,9.50
2023-02-22T20:38:46.116Z,12.10
2023-02-22T20:43:52.832Z,10.50
2023-02-22T20:46:20.396Z,8.07
2023-02-22T20:48:47.911Z,10.93
2023-02-22T20:51:16.184Z,10.43
2023-02-22T20:53:45.079Z,11.25
2023-02-22T20:56:14.391Z,14.43
2023-02-22T20:58:42.513Z,12.27
2023-02-22T21:01:12.256Z,16.95
2023-02-22T21:03:43.741Z,9.43
2023-02-22T21:06:15.479Z,8.23
2023-02-22T21:08:44.391Z,6.75
2023-02-22T21:11:14.287Z,10.82
2023-02-22T21:13:42.490Z,15.50
2023-02-22T21:16:17.501Z,12.60
2023-02-22T21:18:45.550Z,9.20
2023-02-22T21:21:13.501Z,12.75
2023-02-22T21:23:41.507Z,9.27
2023-02-22T21:26:16.712Z,13.77
2023-02-22T21:28:52.123Z,14.80
2023-02-22T21:31:23.649Z,14.27
2023-02-22T21:33:54.839Z,11.90
2023-02-22T21:36:26.447Z,12.48
2023-02-22T21:38:59.524Z,14.35
2023-02-22T21:41:31.180Z,15.07
2023-02-22T21:43:59.947Z,14.90
2023-02-22T21:46:29.352Z,16.17
2023-02-22T21:48:58.810Z,16.55
2023-02-22T21:51:32.262Z,14.27
2023-02-22T21:54:03.380Z,15.45
2023-02-22T21:56:34.384Z,18.13
2023-02-22T21:59:18.872Z,14.85
2023-02-22T22:01:50.186Z,15.23
2023-02-22T22:04:21.407Z,11.93
2023-02-22T22:06:53.619Z,10.18
2023-02-22T22:09:23.780Z,10.48
2023-02-22T22:11:54.134Z,11.50
2023-02-22T22:14:24.142Z,11.48
2023-02-22T22:16:54.539Z,14.90
2023-02-22T22:19:23.068Z,9.63
2023-02-22T22:21:53.525Z,11.52
2023-02-22T22:24:22.850Z,10.40
2023-02-22T22:26:54.904Z,10.65
2023-02-22T22:29:24.692Z,9.07
2023-02-22T22:31:53.167Z,9.65
2023-02-22T22:34:21.033Z,8.70
2023-02-22T22:36:48.626Z,8.90
2023-02-22T22:39:16.208Z,10.20
2023-02-22T22:41:44.563Z,9.70
2023-02-22T22:44:15.511Z,7.15
2023-02-22T22:46:43.848Z,9.63
2023-02-22T22:49:13.738Z,9.38
2023-02-22T22:51:42.674Z,10.00
2023-02-22T22:54:11.088Z,9.30
2023-02-22T22:56:38.961Z,10.65
2023-02-22T22:59:09.744Z,12.75
2023-02-22T23:01:40.724Z,7.68
2023-02-22T23:04:11.834Z,12.68
2023-02-22T23:06:42.380Z,6.72
2023-02-22T23:09:34.788Z,7.35
2023-02-22T23:12:16.662Z,9.00
2023-02-22T23:14:45.445Z,8.65
2023-02-22T23:17:16.285Z,9.05
2023-02-22T23:19:45.355Z,10.15
2023-02-22T23:22:14.522Z,5.05
2023-02-22T23:24:44.624Z,7.05
2023-02-22T23:27:12.840Z,8.30
2023-02-22T23:29:42.267Z,11.45
2023-02-22T23:32:10.418Z,9.73
2023-02-22T23:34:41.844Z,11.60
2023-02-22T23:37:10.875Z,12.13
2023-02-22T23:39:38.830Z,7.68
2023-02-22T23:42:09.010Z,11.18
2023-02-22T23:44:36.764Z,7.30
2023-02-22T23:47:04.518Z,9.07
2023-02-22T23:49:36.041Z,9.60
2023-02-22T23:52:05.276Z,12.05
2023-02-22T23:54:36.615Z,9.70
2023-02-22T23:57:05.494Z,8.15
2023-02-22T23:59:34.001Z,5.10
